sensor_id;sensor_type;location;lat;lon;timestamp;P1;durP1;ratioP1;P2;durP2;ratioP2
39218;SDS011;24934;52.752;6.964;2023-04-26T00:02:21;13.93;;;9.33;;
39218;SDS011;24934;52.752;6.964;2023-04-26T00:04:50;17.00;;;9.83;;
39218;SDS011;24934;52.752;6.964;2023-04-26T00:07:23;16.50;;;9.97;;
39218;SDS011;24934;52.752;6.964;2023-04-26T00:09:49;14.37;;;10.37;;
39218;SDS011;24934;52.752;6.964;2023-04-26T00:12:16;11.40;;;10.20;;
39218;SDS011;24934;52.752;6.964;2023-04-26T00:14:45;15.17;;;9.97;;
39218;SDS011;24934;52.752;6.964;2023-04-26T00:17:10;15.90;;;10.23;;
39218;SDS011;24934;52.752;6.964;2023-04-26T00:19:36;12.57;;;10.80;;
39218;SDS011;24934;52.752;6.964;2023-04-26T00:22:02;14.13;;;10.27;;
39218;SDS011;24934;52.752;6.964;2023-04-26T00:24:29;15.70;;;9.37;;
39218;SDS011;24934;52.752;6.964;2023-04-26T00:26:58;22.33;;;10.87;;
39218;SDS011;24934;52.752;6.964;2023-04-26T00:29:25;14.43;;;10.50;;
39218;SDS011;24934;52.752;6.964;2023-04-26T00:31:51;14.30;;;9.80;;
39218;SDS011;24934;52.752;6.964;2023-04-26T00:34:16;16.90;;;10.07;;
39218;SDS011;24934;52.752;6.964;2023-04-26T00:36:42;19.80;;;10.63;;
39218;SDS011;24934;52.752;6.964;2023-04-26T00:39:08;16.90;;;10.40;;
39218;SDS011;24934;52.752;6.964;2023-04-26T00:41:34;16.50;;;10.83;;
39218;SDS011;24934;52.752;6.964;2023-04-26T00:44:00;20.57;;;10.80;;
39218;SDS011;24934;52.752;6.964;2023-04-26T00:46:26;15.20;;;11.20;;
39218;SDS011;24934;52.752;6.964;2023-04-26T00:48:53;20.50;;;10.40;;
39218;SDS011;24934;52.752;6.964;2023-04-26T00:51:19;17.80;;;10.33;;
39218;SDS011;24934;52.752;6.964;2023-04-26T00:53:45;21.50;;;11.43;;
39218;SDS011;24934;52.752;6.964;2023-04-26T00:56:11;14.23;;;10.83;;
39218;SDS011;24934;52.752;6.964;2023-04-26T00:58:40;15.63;;;10.27;;
39218;SDS011;24934;52.752;6.964;2023-04-26T01:01:06;18.47;;;11.00;;
39218;SDS011;24934;52.752;6.964;2023-04-26T01:03:31;15.90;;;11.30;;
39218;SDS011;24934;52.752;6.964;2023-04-26T01:05:57;13.67;;;11.00;;
39218;SDS011;24934;52.752;6.964;2023-04-26T01:08:23;18.77;;;11.67;;
39218;SDS011;24934;52.752;6.964;2023-04-26T01:10:49;18.07;;;11.43;;
39218;SDS011;24934;52.752;6.964;2023-04-26T01:13:15;17.10;;;11.00;;
39218;SDS011;24934;52.752;6.964;2023-04-26T01:15:42;17.77;;;10.57;;
39218;SDS011;24934;52.752;6.964;2023-04-26T01:18:12;17.70;;;11.73;;
39218;SDS011;24934;52.752;6.964;2023-04-26T01:20:38;23.17;;;11.40;;
39218;SDS011;24934;52.752;6.964;2023-04-26T01:23:05;12.57;;;11.10;;
39218;SDS011;24934;52.752;6.964;2023-04-26T01:25:32;17.07;;;11.00;;
39218;SDS011;24934;52.752;6.964;2023-04-26T01:27:58;14.07;;;10.87;;
39218;SDS011;24934;52.752;6.964;2023-04-26T01:30:24;19.07;;;11.23;;
39218;SDS011;24934;52.752;6.964;2023-04-26T01:32:50;14.57;;;11.00;;
39218;SDS011;24934;52.752;6.964;2023-04-26T01:35:15;21.57;;;11.37;;
39218;SDS011;24934;52.752;6.964;2023-04-26T01:37:41;13.97;;;10.60;;
39218;SDS011;24934;52.752;6.964;2023-04-26T01:40:08;19.87;;;11.40;;
39218;SDS011;24934;52.752;6.964;2023-04-26T01:42:34;26.97;;;11.77;;
39218;SDS011;24934;52.752;6.964;2023-04-26T01:45:00;16.50;;;10.90;;
39218;SDS011;24934;52.752;6.964;2023-04-26T01:47:25;17.03;;;11.10;;
39218;SDS011;24934;52.752;6.964;2023-04-26T01:49:51;12.97;;;10.97;;
39218;SDS011;24934;52.752;6.964;2023-04-26T01:52:17;14.07;;;10.40;;
39218;SDS011;24934;52.752;6.964;2023-04-26T01:54:42;16.90;;;11.30;;
39218;SDS011;24934;52.752;6.964;2023-04-26T01:57:08;17.03;;;10.60;;
39218;SDS011;24934;52.752;6.964;2023-04-26T01:59:34;17.77;;;10.60;;
39218;SDS011;24934;52.752;6.964;2023-04-26T02:01:59;19.07;;;10.40;;
39218;SDS011;24934;52.752;6.964;2023-04-26T02:04:25;15.70;;;12.00;;
39218;SDS011;24934;52.752;6.964;2023-04-26T02:06:52;17.80;;;11.67;;
39218;SDS011;24934;52.752;6.964;2023-04-26T02:09:17;13.37;;;11.33;;
39218;SDS011;24934;52.752;6.964;2023-04-26T02:11:43;17.20;;;11.30;;
39218;SDS011;24934;52.752;6.964;2023-04-26T02:14:09;17.13;;;11.83;;
39218;SDS011;24934;52.752;6.964;2023-04-26T02:16:34;17.83;;;12.10;;
39218;SDS011;24934;52.752;6.964;2023-04-26T02:19:00;17.10;;;11.50;;
39218;SDS011;24934;52.752;6.964;2023-04-26T02:21:27;16.33;;;12.47;;
39218;SDS011;24934;52.752;6.964;2023-04-26T02:23:54;17.73;;;12.17;;
39218;SDS011;24934;52.752;6.964;2023-04-26T02:26:20;15.90;;;11.63;;
39218;SDS011;24934;52.752;6.964;2023-04-26T02:28:46;13.50;;;12.10;;
39218;SDS011;24934;52.752;6.964;2023-04-26T02:31:11;14.57;;;11.40;;
39218;SDS011;24934;52.752;6.964;2023-04-26T02:33:37;19.97;;;12.23;;
39218;SDS011;24934;52.752;6.964;2023-04-26T02:36:03;14.43;;;11.70;;
39218;SDS011;24934;52.752;6.964;2023-04-26T02:38:33;21.33;;;11.87;;
39218;SDS011;24934;52.752;6.964;2023-04-26T02:41:00;15.80;;;12.00;;
39218;SDS011;24934;52.752;6.964;2023-04-26T02:43:26;16.80;;;12.30;;
39218;SDS011;24934;52.752;6.964;2023-04-26T02:45:52;17.43;;;12.13;;
39218;SDS011;24934;52.752;6.964;2023-04-26T02:48:18;15.97;;;12.33;;
39218;SDS011;24934;52.752;6.964;2023-04-26T02:50:43;17.37;;;12.07;;
39218;SDS011;24934;52.752;6.964;2023-04-26T02:53:09;20.47;;;12.33;;
39218;SDS011;24934;52.752;6.964;2023-04-26T02:55:36;15.03;;;11.63;;
39218;SDS011;24934;52.752;6.964;2023-04-26T02:58:03;14.70;;;11.67;;
39218;SDS011;24934;52.752;6.964;2023-04-26T03:00:28;19.17;;;11.00;;
39218;SDS011;24934;52.752;6.964;2023-04-26T03:02:54;22.33;;;11.37;;
39218;SDS011;24934;52.752;6.964;2023-04-26T03:05:20;17.17;;;11.90;;
39218;SDS011;24934;52.752;6.964;2023-04-26T03:07:46;16.00;;;11.50;;
39218;SDS011;24934;52.752;6.964;2023-04-26T03:10:12;15.20;;;11.77;;
39218;SDS011;24934;52.752;6.964;2023-04-26T03:12:38;16.43;;;12.00;;
39218;SDS011;24934;52.752;6.964;2023-04-26T03:15:04;22.80;;;11.80;;
39218;SDS011;24934;52.752;6.964;2023-04-26T03:17:30;17.27;;;11.77;;
39218;SDS011;24934;52.752;6.964;2023-04-26T03:19:55;16.80;;;11.03;;
39218;SDS011;24934;52.752;6.964;2023-04-26T03:22:21;20.93;;;11.50;;
39218;SDS011;24934;52.752;6.964;2023-04-26T03:24:47;20.30;;;11.07;;
39218;SDS011;24934;52.752;6.964;2023-04-26T03:27:13;15.93;;;11.40;;
39218;SDS011;24934;52.752;6.964;2023-04-26T03:29:39;16.70;;;11.90;;
39218;SDS011;24934;52.752;6.964;2023-04-26T03:32:05;16.17;;;11.53;;
39218;SDS011;24934;52.752;6.964;2023-04-26T03:34:31;19.73;;;11.67;;
39218;SDS011;24934;52.752;6.964;2023-04-26T03:36:56;22.77;;;11.20;;
39218;SDS011;24934;52.752;6.964;2023-04-26T03:39:22;12.17;;;10.60;;
39218;SDS011;24934;52.752;6.964;2023-04-26T03:41:47;14.03;;;10.37;;
39218;SDS011;24934;52.752;6.964;2023-04-26T03:44:13;13.73;;;11.00;;
39218;SDS011;24934;52.752;6.964;2023-04-26T03:46:39;18.17;;;11.27;;
39218;SDS011;24934;52.752;6.964;2023-04-26T03:49:05;17.10;;;11.43;;
39218;SDS011;24934;52.752;6.964;2023-04-26T03:51:30;15.80;;;11.23;;
39218;SDS011;24934;52.752;6.964;2023-04-26T03:53:57;15.60;;;11.40;;
39218;SDS011;24934;52.752;6.964;2023-04-26T03:56:23;12.67;;;11.33;;
39218;SDS011;24934;52.752;6.964;2023-04-26T03:58:50;14.83;;;10.83;;
39218;SDS011;24934;52.752;6.964;2023-04-26T04:01:16;17.70;;;11.20;;
39218;SDS011;24934;52.752;6.964;2023-04-26T04:03:42;13.87;;;10.30;;
39218;SDS011;24934;52.752;6.964;2023-04-26T04:06:07;19.47;;;11.33;;
39218;SDS011;24934;52.752;6.964;2023-04-26T04:08:33;17.83;;;11.50;;
39218;SDS011;24934;52.752;6.964;2023-04-26T04:10:59;18.60;;;12.00;;
39218;SDS011;24934;52.752;6.964;2023-04-26T04:13:25;17.37;;;12.37;;
39218;SDS011;24934;52.752;6.964;2023-04-26T04:15:54;19.57;;;12.40;;
39218;SDS011;24934;52.752;6.964;2023-04-26T04:18:19;20.13;;;12.47;;
39218;SDS011;24934;52.752;6.964;2023-04-26T04:20:45;16.63;;;12.33;;
39218;SDS011;24934;52.752;6.964;2023-04-26T04:23:18;15.90;;;12.00;;
39218;SDS011;24934;52.752;6.964;2023-04-26T04:25:43;16.70;;;12.00;;
39218;SDS011;24934;52.752;6.964;2023-04-26T04:28:11;19.47;;;13.40;;
39218;SDS011;24934;52.752;6.964;2023-04-26T04:30:37;16.53;;;13.07;;
39218;SDS011;24934;52.752;6.964;2023-04-26T04:33:03;18.43;;;13.90;;
39218;SDS011;24934;52.752;6.964;2023-04-26T04:35:29;18.50;;;14.27;;
39218;SDS011;24934;52.752;6.964;2023-04-26T04:37:57;17.40;;;13.40;;
39218;SDS011;24934;52.752;6.964;2023-04-26T04:40:23;20.77;;;13.83;;
39218;SDS011;24934;52.752;6.964;2023-04-26T04:42:49;24.17;;;14.90;;
39218;SDS011;24934;52.752;6.964;2023-04-26T04:45:15;21.00;;;14.80;;
39218;SDS011;24934;52.752;6.964;2023-04-26T04:47:41;19.07;;;14.77;;
39218;SDS011;24934;52.752;6.964;2023-04-26T04:50:07;22.10;;;15.20;;
39218;SDS011;24934;52.752;6.964;2023-04-26T04:52:33;23.33;;;15.37;;
39218;SDS011;24934;52.752;6.964;2023-04-26T04:54:59;19.40;;;14.30;;
39218;SDS011;24934;52.752;6.964;2023-04-26T04:57:28;20.87;;;14.43;;
39218;SDS011;24934;52.752;6.964;2023-04-26T04:59:53;20.70;;;14.17;;
39218;SDS011;24934;52.752;6.964;2023-04-26T05:02:19;18.10;;;13.70;;
39218;SDS011;24934;52.752;6.964;2023-04-26T05:04:45;21.40;;;13.80;;
39218;SDS011;24934;52.752;6.964;2023-04-26T05:07:10;20.20;;;13.70;;
39218;SDS011;24934;52.752;6.964;2023-04-26T05:09:39;19.67;;;13.53;;
39218;SDS011;24934;52.752;6.964;2023-04-26T05:12:07;18.70;;;13.33;;
39218;SDS011;24934;52.752;6.964;2023-04-26T05:14:32;16.03;;;13.00;;
39218;SDS011;24934;52.752;6.964;2023-04-26T05:16:58;15.73;;;13.30;;
39218;SDS011;24934;52.752;6.964;2023-04-26T05:19:24;17.37;;;12.70;;
39218;SDS011;24934;52.752;6.964;2023-04-26T05:21:49;21.40;;;13.47;;
39218;SDS011;24934;52.752;6.964;2023-04-26T05:24:16;14.40;;;12.40;;
39218;SDS011;24934;52.752;6.964;2023-04-26T05:26:42;16.57;;;12.80;;
39218;SDS011;24934;52.752;6.964;2023-04-26T05:29:10;16.13;;;12.87;;
39218;SDS011;24934;52.752;6.964;2023-04-26T05:31:35;15.80;;;12.80;;
39218;SDS011;24934;52.752;6.964;2023-04-26T05:34:01;15.87;;;13.33;;
39218;SDS011;24934;52.752;6.964;2023-04-26T05:36:27;18.97;;;13.63;;
39218;SDS011;24934;52.752;6.964;2023-04-26T05:38:53;19.53;;;13.80;;
39218;SDS011;24934;52.752;6.964;2023-04-26T05:41:18;16.20;;;13.60;;
39218;SDS011;24934;52.752;6.964;2023-04-26T05:43:45;25.17;;;14.40;;
39218;SDS011;24934;52.752;6.964;2023-04-26T05:46:11;17.27;;;13.33;;
39218;SDS011;24934;52.752;6.964;2023-04-26T05:48:37;17.40;;;13.47;;
39218;SDS011;24934;52.752;6.964;2023-04-26T05:51:05;14.87;;;13.37;;
39218;SDS011;24934;52.752;6.964;2023-04-26T05:53:31;16.87;;;13.33;;
39218;SDS011;24934;52.752;6.964;2023-04-26T05:55:57;15.47;;;13.33;;
39218;SDS011;24934;52.752;6.964;2023-04-26T05:58:23;16.53;;;13.27;;
39218;SDS011;24934;52.752;6.964;2023-04-26T06:00:48;14.47;;;13.07;;
39218;SDS011;24934;52.752;6.964;2023-04-26T06:03:14;15.90;;;12.70;;
39218;SDS011;24934;52.752;6.964;2023-04-26T06:05:40;14.10;;;12.70;;
39218;SDS011;24934;52.752;6.964;2023-04-26T06:08:05;14.43;;;12.80;;
39218;SDS011;24934;52.752;6.964;2023-04-26T06:10:32;15.07;;;12.77;;
39218;SDS011;24934;52.752;6.964;2023-04-26T06:12:59;16.40;;;12.83;;
39218;SDS011;24934;52.752;6.964;2023-04-26T06:15:25;16.27;;;12.30;;
39218;SDS011;24934;52.752;6.964;2023-04-26T06:17:51;14.73;;;12.57;;
39218;SDS011;24934;52.752;6.964;2023-04-26T06:20:17;15.00;;;11.60;;
39218;SDS011;24934;52.752;6.964;2023-04-26T06:22:42;15.90;;;11.73;;
39218;SDS011;24934;52.752;6.964;2023-04-26T06:25:08;14.47;;;11.40;;
39218;SDS011;24934;52.752;6.964;2023-04-26T06:27:34;13.40;;;11.30;;
39218;SDS011;24934;52.752;6.964;2023-04-26T06:30:00;14.03;;;10.73;;
39218;SDS011;24934;52.752;6.964;2023-04-26T06:32:25;12.03;;;9.97;;
39218;SDS011;24934;52.752;6.964;2023-04-26T06:34:51;13.90;;;9.80;;
39218;SDS011;24934;52.752;6.964;2023-04-26T06:37:17;18.60;;;10.90;;
39218;SDS011;24934;52.752;6.964;2023-04-26T06:39:42;16.87;;;10.30;;
39218;SDS011;24934;52.752;6.964;2023-04-26T06:42:08;12.40;;;10.60;;
39218;SDS011;24934;52.752;6.964;2023-04-26T06:44:33;15.70;;;10.67;;
39218;SDS011;24934;52.752;6.964;2023-04-26T06:46:59;13.03;;;10.20;;
39218;SDS011;24934;52.752;6.964;2023-04-26T06:49:25;10.53;;;9.27;;
39218;SDS011;24934;52.752;6.964;2023-04-26T06:51:50;10.80;;;9.80;;
39218;SDS011;24934;52.752;6.964;2023-04-26T06:54:17;11.37;;;10.10;;
39218;SDS011;24934;52.752;6.964;2023-04-26T06:56:43;12.33;;;9.03;;
39218;SDS011;24934;52.752;6.964;2023-04-26T06:59:09;12.10;;;9.80;;
39218;SDS011;24934;52.752;6.964;2023-04-26T07:01:34;12.60;;;11.30;;
39218;SDS011;24934;52.752;6.964;2023-04-26T07:04:00;14.83;;;10.70;;
39218;SDS011;24934;52.752;6.964;2023-04-26T07:06:27;15.97;;;12.37;;
39218;SDS011;24934;52.752;6.964;2023-04-26T07:08:53;16.27;;;12.60;;
39218;SDS011;24934;52.752;6.964;2023-04-26T07:11:19;13.00;;;11.70;;
39218;SDS011;24934;52.752;6.964;2023-04-26T07:13:45;15.90;;;11.60;;
39218;SDS011;24934;52.752;6.964;2023-04-26T07:16:11;12.50;;;11.33;;
39218;SDS011;24934;52.752;6.964;2023-04-26T07:18:38;13.27;;;11.73;;
39218;SDS011;24934;52.752;6.964;2023-04-26T07:21:04;14.27;;;12.80;;
39218;SDS011;24934;52.752;6.964;2023-04-26T07:23:30;13.10;;;11.90;;
39218;SDS011;24934;52.752;6.964;2023-04-26T07:25:56;17.93;;;12.30;;
39218;SDS011;24934;52.752;6.964;2023-04-26T07:28:22;13.73;;;12.40;;
39218;SDS011;24934;52.752;6.964;2023-04-26T07:30:48;14.87;;;12.40;;
39218;SDS011;24934;52.752;6.964;2023-04-26T07:33:13;13.93;;;12.43;;
39218;SDS011;24934;52.752;6.964;2023-04-26T07:35:39;13.67;;;12.33;;
39218;SDS011;24934;52.752;6.964;2023-04-26T07:38:06;16.90;;;12.50;;
39218;SDS011;24934;52.752;6.964;2023-04-26T07:40:33;15.13;;;11.97;;
39218;SDS011;24934;52.752;6.964;2023-04-26T07:42:58;13.07;;;11.77;;
39218;SDS011;24934;52.752;6.964;2023-04-26T07:45:24;14.57;;;12.17;;
39218;SDS011;24934;52.752;6.964;2023-04-26T07:47:49;13.30;;;12.00;;
39218;SDS011;24934;52.752;6.964;2023-04-26T07:50:15;15.02;;;11.63;;
39218;SDS011;24934;52.752;6.964;2023-04-26T07:52:41;12.38;;;11.15;;
39218;SDS011;24934;52.752;6.964;2023-04-26T07:55:07;14.00;;;11.40;;
39218;SDS011;24934;52.752;6.964;2023-04-26T07:57:33;14.68;;;11.15;;
39218;SDS011;24934;52.752;6.964;2023-04-26T07:59:59;13.00;;;11.70;;
39218;SDS011;24934;52.752;6.964;2023-04-26T08:02:24;13.88;;;11.85;;
39218;SDS011;24934;52.752;6.964;2023-04-26T08:04:50;12.90;;;11.60;;
39218;SDS011;24934;52.752;6.964;2023-04-26T08:07:19;12.95;;;11.77;;
39218;SDS011;24934;52.752;6.964;2023-04-26T08:09:45;13.77;;;12.43;;
39218;SDS011;24934;52.752;6.964;2023-04-26T08:12:13;13.27;;;11.88;;
39218;SDS011;24934;52.752;6.964;2023-04-26T08:14:39;12.30;;;11.18;;
39218;SDS011;24934;52.752;6.964;2023-04-26T08:17:05;12.55;;;10.90;;
39218;SDS011;24934;52.752;6.964;2023-04-26T08:19:33;11.63;;;10.43;;
39218;SDS011;24934;52.752;6.964;2023-04-26T08:21:59;10.60;;;9.60;;
39218;SDS011;24934;52.752;6.964;2023-04-26T08:24:24;11.52;;;10.32;;
39218;SDS011;24934;52.752;6.964;2023-04-26T08:26:50;11.38;;;10.27;;
39218;SDS011;24934;52.752;6.964;2023-04-26T08:29:16;11.55;;;10.38;;
39218;SDS011;24934;52.752;6.964;2023-04-26T08:31:42;12.90;;;11.70;;
39218;SDS011;24934;52.752;6.964;2023-04-26T08:34:08;13.10;;;12.00;;
39218;SDS011;24934;52.752;6.964;2023-04-26T08:36:38;11.70;;;10.75;;
39218;SDS011;24934;52.752;6.964;2023-04-26T08:39:05;11.77;;;10.68;;
39218;SDS011;24934;52.752;6.964;2023-04-26T08:41:44;11.70;;;10.70;;
39218;SDS011;24934;52.752;6.964;2023-04-26T08:44:14;12.23;;;11.13;;
39218;SDS011;24934;52.752;6.964;2023-04-26T08:46:43;12.25;;;11.00;;
39218;SDS011;24934;52.752;6.964;2023-04-26T08:49:25;11.63;;;10.65;;
39218;SDS011;24934;52.752;6.964;2023-04-26T08:52:17;13.27;;;12.15;;
39218;SDS011;24934;52.752;6.964;2023-04-26T08:54:47;12.13;;;10.65;;
39218;SDS011;24934;52.752;6.964;2023-04-26T08:57:14;11.05;;;10.05;;
39218;SDS011;24934;52.752;6.964;2023-04-26T08:59:40;12.27;;;10.38;;
39218;SDS011;24934;52.752;6.964;2023-04-26T09:02:08;12.07;;;10.90;;
39218;SDS011;24934;52.752;6.964;2023-04-26T09:04:34;12.18;;;10.98;;
39218;SDS011;24934;52.752;6.964;2023-04-26T09:07:01;12.18;;;11.07;;
39218;SDS011;24934;52.752;6.964;2023-04-26T09:09:30;12.05;;;10.88;;
39218;SDS011;24934;52.752;6.964;2023-04-26T09:12:02;14.00;;;10.70;;
39218;SDS011;24934;52.752;6.964;2023-04-26T09:14:28;11.70;;;10.23;;
39218;SDS011;24934;52.752;6.964;2023-04-26T09:16:54;11.43;;;10.20;;
39218;SDS011;24934;52.752;6.964;2023-04-26T09:19:33;12.45;;;11.25;;
39218;SDS011;24934;52.752;6.964;2023-04-26T09:22:01;11.90;;;10.80;;
39218;SDS011;24934;52.752;6.964;2023-04-26T09:24:27;12.00;;;10.90;;
39218;SDS011;24934;52.752;6.964;2023-04-26T09:27:10;11.95;;;10.70;;
39218;SDS011;24934;52.752;6.964;2023-04-26T09:29:36;11.20;;;10.10;;
39218;SDS011;24934;52.752;6.964;2023-04-26T09:32:02;11.00;;;9.98;;
39218;SDS011;24934;52.752;6.964;2023-04-26T09:34:29;10.02;;;9.23;;
39218;SDS011;24934;52.752;6.964;2023-04-26T09:37:07;9.80;;;9.00;;
39218;SDS011;24934;52.752;6.964;2023-04-26T09:39:39;10.85;;;9.40;;
39218;SDS011;24934;52.752;6.964;2023-04-26T09:42:06;10.43;;;9.38;;
39218;SDS011;24934;52.752;6.964;2023-04-26T09:44:32;11.95;;;10.10;;
39218;SDS011;24934;52.752;6.964;2023-04-26T09:47:06;13.02;;;10.27;;
39218;SDS011;24934;52.752;6.964;2023-04-26T09:49:49;10.95;;;9.65;;
39218;SDS011;24934;52.752;6.964;2023-04-26T09:52:18;10.63;;;9.53;;
39218;SDS011;24934;52.752;6.964;2023-04-26T09:54:45;14.70;;;11.23;;
39218;SDS011;24934;52.752;6.964;2023-04-26T09:57:16;12.83;;;11.60;;
39218;SDS011;24934;52.752;6.964;2023-04-26T09:59:47;13.98;;;12.20;;
39218;SDS011;24934;52.752;6.964;2023-04-26T10:04:48;13.52;;;12.27;;
39218;SDS011;24934;52.752;6.964;2023-04-26T10:07:19;13.55;;;12.35;;
39218;SDS011;24934;52.752;6.964;2023-04-26T10:09:46;13.48;;;11.77;;
39218;SDS011;24934;52.752;6.964;2023-04-26T10:12:14;13.98;;;12.68;;
39218;SDS011;24934;52.752;6.964;2023-04-26T10:14:42;13.88;;;12.60;;
39218;SDS011;24934;52.752;6.964;2023-04-26T10:17:08;13.93;;;12.63;;
39218;SDS011;24934;52.752;6.964;2023-04-26T10:19:36;14.10;;;12.82;;
39218;SDS011;24934;52.752;6.964;2023-04-26T10:22:05;14.00;;;12.82;;
39218;SDS011;24934;52.752;6.964;2023-04-26T10:24:34;14.25;;;12.85;;
39218;SDS011;24934;52.752;6.964;2023-04-26T10:27:01;14.82;;;13.48;;
39218;SDS011;24934;52.752;6.964;2023-04-26T10:32:31;14.02;;;12.82;;
39218;SDS011;24934;52.752;6.964;2023-04-26T10:35:14;15.40;;;14.10;;
39218;SDS011;24934;52.752;6.964;2023-04-26T10:40:26;14.35;;;13.02;;
39218;SDS011;24934;52.752;6.964;2023-04-26T10:45:39;14.27;;;12.98;;
39218;SDS011;24934;52.752;6.964;2023-04-26T10:48:16;14.50;;;13.10;;
39218;SDS011;24934;52.752;6.964;2023-04-26T10:53:25;13.57;;;12.48;;
39218;SDS011;24934;52.752;6.964;2023-04-26T10:55:55;13.25;;;12.10;;
39218;SDS011;24934;52.752;6.964;2023-04-26T10:58:30;12.20;;;11.20;;
39218;SDS011;24934;52.752;6.964;2023-04-26T11:03:40;11.38;;;10.30;;
39218;SDS011;24934;52.752;6.964;2023-04-26T11:06:06;10.68;;;9.43;;
39218;SDS011;24934;52.752;6.964;2023-04-26T11:08:39;11.38;;;10.20;;
39218;SDS011;24934;52.752;6.964;2023-04-26T11:11:11;11.23;;;10.13;;
39218;SDS011;24934;52.752;6.964;2023-04-26T11:13:41;10.88;;;9.82;;
39218;SDS011;24934;52.752;6.964;2023-04-26T11:16:08;11.38;;;10.27;;
39218;SDS011;24934;52.752;6.964;2023-04-26T11:18:34;11.40;;;9.90;;
39218;SDS011;24934;52.752;6.964;2023-04-26T11:21:03;11.35;;;10.40;;
39218;SDS011;24934;52.752;6.964;2023-04-26T11:23:30;12.83;;;10.43;;
39218;SDS011;24934;52.752;6.964;2023-04-26T11:25:59;11.33;;;10.27;;
39218;SDS011;24934;52.752;6.964;2023-04-26T11:28:27;14.70;;;10.70;;
39218;SDS011;24934;52.752;6.964;2023-04-26T11:30:56;13.60;;;10.77;;
39218;SDS011;24934;52.752;6.964;2023-04-26T11:33:23;13.43;;;11.00;;
39218;SDS011;24934;52.752;6.964;2023-04-26T11:35:49;12.17;;;10.47;;
39218;SDS011;24934;52.752;6.964;2023-04-26T11:38:25;13.70;;;10.13;;
39218;SDS011;24934;52.752;6.964;2023-04-26T11:40:53;10.77;;;9.73;;
39218;SDS011;24934;52.752;6.964;2023-04-26T11:43:36;11.60;;;10.40;;
39218;SDS011;24934;52.752;6.964;2023-04-26T11:46:03;15.57;;;10.90;;
39218;SDS011;24934;52.752;6.964;2023-04-26T11:48:30;11.63;;;10.43;;
39218;SDS011;24934;52.752;6.964;2023-04-26T11:50:57;13.70;;;10.70;;
39218;SDS011;24934;52.752;6.964;2023-04-26T11:53:24;14.53;;;10.37;;
39218;SDS011;24934;52.752;6.964;2023-04-26T11:56:02;11.03;;;10.00;;
39218;SDS011;24934;52.752;6.964;2023-04-26T11:58:38;11.63;;;10.07;;
39218;SDS011;24934;52.752;6.964;2023-04-26T12:01:04;12.77;;;9.80;;
39218;SDS011;24934;52.752;6.964;2023-04-26T12:03:33;11.00;;;10.00;;
39218;SDS011;24934;52.752;6.964;2023-04-26T12:06:01;11.40;;;10.13;;
39218;SDS011;24934;52.752;6.964;2023-04-26T12:08:28;11.67;;;10.07;;
39218;SDS011;24934;52.752;6.964;2023-04-26T12:10:57;15.27;;;10.27;;
39218;SDS011;24934;52.752;6.964;2023-04-26T12:13:24;11.30;;;10.23;;
39218;SDS011;24934;52.752;6.964;2023-04-26T12:15:50;12.37;;;10.60;;
39218;SDS011;24934;52.752;6.964;2023-04-26T12:18:16;11.17;;;10.07;;
39218;SDS011;24934;52.752;6.964;2023-04-26T12:20:42;10.83;;;9.83;;
39218;SDS011;24934;52.752;6.964;2023-04-26T12:23:14;10.80;;;9.70;;
39218;SDS011;24934;52.752;6.964;2023-04-26T12:25:41;10.32;;;9.27;;
39218;SDS011;24934;52.752;6.964;2023-04-26T12:28:19;10.43;;;9.43;;
39218;SDS011;24934;52.752;6.964;2023-04-26T12:30:46;10.60;;;9.80;;
39218;SDS011;24934;52.752;6.964;2023-04-26T12:33:12;10.93;;;10.02;;
39218;SDS011;24934;52.752;6.964;2023-04-26T12:35:38;12.88;;;10.80;;
39218;SDS011;24934;52.752;6.964;2023-04-26T12:38:03;12.50;;;11.27;;
39218;SDS011;24934;52.752;6.964;2023-04-26T12:40:29;12.52;;;11.20;;
39218;SDS011;24934;52.752;6.964;2023-04-26T12:42:55;12.13;;;11.02;;
39218;SDS011;24934;52.752;6.964;2023-04-26T12:45:22;13.98;;;12.77;;
39218;SDS011;24934;52.752;6.964;2023-04-26T12:47:49;12.80;;;11.70;;
39218;SDS011;24934;52.752;6.964;2023-04-26T12:50:15;12.80;;;11.70;;
39218;SDS011;24934;52.752;6.964;2023-04-26T12:52:42;13.23;;;11.10;;
39218;SDS011;24934;52.752;6.964;2023-04-26T12:55:09;12.02;;;10.93;;
39218;SDS011;24934;52.752;6.964;2023-04-26T12:57:36;11.88;;;10.80;;
39218;SDS011;24934;52.752;6.964;2023-04-26T13:00:03;13.18;;;10.60;;
39218;SDS011;24934;52.752;6.964;2023-04-26T13:02:31;11.70;;;10.63;;
39218;SDS011;24934;52.752;6.964;2023-04-26T13:04:57;12.35;;;10.77;;
39218;SDS011;24934;52.752;6.964;2023-04-26T13:07:25;12.70;;;11.38;;
39218;SDS011;24934;52.752;6.964;2023-04-26T13:09:51;12.85;;;11.65;;
39218;SDS011;24934;52.752;6.964;2023-04-26T13:12:17;12.98;;;11.50;;
39218;SDS011;24934;52.752;6.964;2023-04-26T13:14:43;15.38;;;11.55;;
39218;SDS011;24934;52.752;6.964;2023-04-26T13:17:10;12.07;;;10.95;;
39218;SDS011;24934;52.752;6.964;2023-04-26T13:19:36;11.80;;;10.68;;
39218;SDS011;24934;52.752;6.964;2023-04-26T13:22:02;12.73;;;10.40;;
39218;SDS011;24934;52.752;6.964;2023-04-26T13:24:29;11.20;;;10.15;;
39218;SDS011;24934;52.752;6.964;2023-04-26T13:26:55;12.00;;;10.90;;
39218;SDS011;24934;52.752;6.964;2023-04-26T13:29:22;12.00;;;10.38;;
39218;SDS011;24934;52.752;6.964;2023-04-26T13:31:48;12.73;;;10.63;;
39218;SDS011;24934;52.752;6.964;2023-04-26T13:34:13;12.77;;;11.35;;
39218;SDS011;24934;52.752;6.964;2023-04-26T13:36:39;12.27;;;11.07;;
39218;SDS011;24934;52.752;6.964;2023-04-26T13:39:05;11.98;;;10.70;;
39218;SDS011;24934;52.752;6.964;2023-04-26T13:41:32;12.53;;;10.33;;
39218;SDS011;24934;52.752;6.964;2023-04-26T13:43:59;11.93;;;10.70;;
39218;SDS011;24934;52.752;6.964;2023-04-26T13:46:26;14.73;;;11.10;;
39218;SDS011;24934;52.752;6.964;2023-04-26T13:48:52;12.30;;;10.77;;
39218;SDS011;24934;52.752;6.964;2023-04-26T13:51:17;12.13;;;10.83;;
39218;SDS011;24934;52.752;6.964;2023-04-26T13:53:43;12.43;;;11.33;;
39218;SDS011;24934;52.752;6.964;2023-04-26T13:56:09;12.77;;;11.57;;
39218;SDS011;24934;52.752;6.964;2023-04-26T13:58:35;12.93;;;11.50;;
39218;SDS011;24934;52.752;6.964;2023-04-26T14:01:04;19.73;;;11.10;;
39218;SDS011;24934;52.752;6.964;2023-04-26T14:03:29;12.93;;;11.00;;
39218;SDS011;24934;52.752;6.964;2023-04-26T14:05:56;11.43;;;10.33;;
39218;SDS011;24934;52.752;6.964;2023-04-26T14:08:21;12.00;;;10.90;;
39218;SDS011;24934;52.752;6.964;2023-04-26T14:10:47;11.27;;;10.30;;
39218;SDS011;24934;52.752;6.964;2023-04-26T14:13:13;12.33;;;10.40;;
39218;SDS011;24934;52.752;6.964;2023-04-26T14:15:40;14.57;;;10.07;;
39218;SDS011;24934;52.752;6.964;2023-04-26T14:18:05;13.70;;;10.07;;
39218;SDS011;24934;52.752;6.964;2023-04-26T14:20:31;12.17;;;10.07;;
39218;SDS011;24934;52.752;6.964;2023-04-26T14:22:57;11.23;;;9.87;;
39218;SDS011;24934;52.752;6.964;2023-04-26T14:25:23;11.70;;;10.00;;
39218;SDS011;24934;52.752;6.964;2023-04-26T14:27:49;12.07;;;9.63;;
39218;SDS011;24934;52.752;6.964;2023-04-26T14:30:15;15.07;;;9.27;;
39218;SDS011;24934;52.752;6.964;2023-04-26T14:32:41;10.38;;;9.48;;
39218;SDS011;24934;52.752;6.964;2023-04-26T14:35:07;12.00;;;10.50;;
39218;SDS011;24934;52.752;6.964;2023-04-26T14:37:33;11.57;;;10.50;;
39218;SDS011;24934;52.752;6.964;2023-04-26T14:39:59;11.40;;;10.25;;